Time;durP1;ratioP1;P1;durP2;ratioP2;P2;SDS_P1;SDS_P2;PMS_P1;PMS_P2;Temp;Humidity;BMP_temperature;BMP_pressure;BME280_temperature;BME280_humidity;BME280_pressure;Samples;Min_cycle;Max_cycle;Signal;HPM_P1;HPM_P2
2022/12/24 00:02:08;;;;;;;0.50;0.50;;;;;;;4.50;100.00;99538.00;5031421;28;20083;-79
2022/12/24 00:04:33;;;;;;;0.40;0.40;;;;;;;4.58;100.00;99559.34;5035338;28;20037;-78
2022/12/24 00:06:59;;;;;;;0.40;0.40;;;;;;;4.42;100.00;99536.22;5068534;28;20079;-78
2022/12/24 00:09:25;;;;;;;0.40;0.40;;;;;;;4.11;100.00;99533.34;5036592;28;20026;-78
2022/12/24 00:11:50;;;;;;;0.40;0.40;;;;;;;3.79;100.00;99540.25;5034857;28;20041;-78
2022/12/24 00:14:16;;;;;;;0.50;0.50;;;;;;;3.55;100.00;99543.69;5018838;28;20041;-78
2022/12/24 00:16:42;;;;;;;0.40;0.40;;;;;;;3.32;100.00;99551.38;5035317;28;20029;-77
2022/12/24 00:19:10;;;;;;;0.40;0.40;;;;;;;2.84;100.00;99504.97;5036440;28;20030;-78
2022/12/24 00:21:36;;;;;;;0.40;0.40;;;;;;;2.99;100.00;99545.91;5035123;28;20026;-78
2022/12/24 00:24:04;;;;;;;1.17;1.13;;;;;;;2.78;100.00;99540.09;5002404;28;20035;-78
2022/12/24 00:26:29;;;;;;;0.70;0.70;;;;;;;2.72;100.00;99540.72;5034738;28;20030;-78
2022/12/24 00:28:55;;;;;;;0.50;0.50;;;;;;;2.59;100.00;99536.66;5035104;28;20082;-78
2022/12/24 00:31:21;;;;;;;0.40;0.40;;;;;;;2.51;100.00;99512.69;5035847;28;20025;-77
2022/12/24 00:33:47;;;;;;;0.40;0.40;;;;;;;2.70;100.00;99526.75;5051641;28;20395;-77
2022/12/24 00:36:13;;;;;;;0.40;0.40;;;;;;;2.57;100.00;99511.28;5034499;28;20120;-77
2022/12/24 00:38:38;;;;;;;0.40;0.40;;;;;;;2.71;100.00;99517.84;5034654;28;20105;-77
2022/12/24 00:41:22;;;;;;;0.50;0.50;;;;;;;2.95;100.00;99541.88;5018214;28;20052;-78
2022/12/24 00:43:55;;;;;;;0.40;0.40;;;;;;;2.92;100.00;99536.88;5020047;28;20033;-79
2022/12/24 00:46:21;;;;;;;0.40;0.40;;;;;;;3.04;100.00;99543.59;5018051;28;20022;-77
2022/12/24 00:48:48;;;;;;;0.40;0.40;;;;;;;2.90;100.00;99544.16;5034486;28;20309;-78
2022/12/24 00:51:14;;;;;;;0.50;0.50;;;;;;;3.04;100.00;99545.41;5001984;28;20045;-77
2022/12/24 00:53:39;;;;;;;0.40;0.40;;;;;;;3.04;100.00;99540.94;5017599;28;20052;-77
2022/12/24 00:56:06;;;;;;;0.50;0.50;;;;;;;3.12;100.00;99541.97;5017790;28;20033;-78
2022/12/24 00:58:31;;;;;;;0.50;0.50;;;;;;;3.06;100.00;99541.59;5017694;28;20487;-78
2022/12/24 01:00:57;;;;;;;0.40;0.40;;;;;;;2.97;100.00;99541.72;5035156;28;20037;-78
2022/12/24 01:03:33;;;;;;;0.43;0.43;;;;;;;2.91;100.00;99535.22;5017363;28;20432;-78
2022/12/24 01:05:58;;;;;;;0.50;0.50;;;;;;;2.93;100.00;99551.81;5035586;28;20030;-78
2022/12/24 01:08:24;;;;;;;0.50;0.50;;;;;;;2.88;100.00;99546.13;5035266;28;20029;-78
2022/12/24 01:10:50;;;;;;;0.40;0.40;;;;;;;2.80;100.00;99559.34;5034123;28;20055;-78
2022/12/24 01:13:15;;;;;;;0.40;0.40;;;;;;;2.67;100.00;99537.69;5034344;28;20095;-77
2022/12/24 01:15:41;;;;;;;0.40;0.40;;;;;;;2.66;100.00;99542.19;5033015;28;20040;-77
2022/12/24 01:18:06;;;;;;;0.50;0.50;;;;;;;2.55;100.00;99535.28;5033931;28;20056;-77
2022/12/24 01:20:32;;;;;;;0.40;0.40;;;;;;;2.60;100.00;99545.47;5017137;28;20040;-77
2022/12/24 01:22:59;;;;;;;0.47;0.47;;;;;;;2.61;100.00;99533.84;5033598;28;20033;-77
2022/12/24 01:25:24;;;;;;;0.45;0.45;;;;;;;2.77;100.00;99530.47;5034939;28;20472;-78
2022/12/24 01:27:50;;;;;;;0.50;0.50;;;;;;;3.04;100.00;99534.78;5035087;28;20040;-79
2022/12/24 01:30:15;;;;;;;0.40;0.40;;;;;;;3.37;100.00;99527.00;5017680;28;20087;-79
2022/12/24 01:32:41;;;;;;;0.40;0.40;;;;;;;3.63;100.00;99529.59;5033755;28;20029;-79
2022/12/24 01:35:08;;;;;;;0.50;0.50;;;;;;;3.76;100.00;99532.63;5033659;28;20095;-79
2022/12/24 01:37:34;;;;;;;0.47;0.47;;;;;;;3.89;100.00;99524.16;5017358;28;20033;-77
2022/12/24 01:45:47;;;;;;;0.57;0.57;;;;;;;4.30;100.00;99580.91;5019248;28;20049;-79
2022/12/24 01:48:40;;;;;;;0.40;0.40;;;;;;;4.35;100.00;99573.28;5032969;28;20037;-79
2022/12/24 01:51:20;;;;;;;;;;;;;;;4.36;100.00;99550.16;5001277;28;20044;-77
2022/12/24 01:53:49;;;;;;;0.40;0.40;;;;;;;4.43;100.00;99545.84;5049953;28;19916;-77
2022/12/24 01:56:15;;;;;;;0.47;0.47;;;;;;;4.29;100.00;99512.75;5033085;28;20037;-80
2022/12/24 01:58:45;;;;;;;0.50;0.50;;;;;;;4.43;100.00;99518.41;5016273;28;20025;-78
2022/12/24 02:01:11;;;;;;;0.40;0.40;;;;;;;4.58;100.00;99533.53;5016892;28;20128;-77
2022/12/24 02:03:36;;;;;;;0.47;0.47;;;;;;;4.72;100.00;99526.69;5033118;28;20121;-76
2022/12/24 02:06:03;;;;;;;0.40;0.40;;;;;;;4.81;100.00;99522.19;5032945;28;20392;-76
2022/12/24 02:08:38;;;;;;;0.50;0.50;;;;;;;4.83;100.00;99505.03;5016186;28;20468;-79
2022/12/24 02:11:13;;;;;;;0.40;0.40;;;;;;;4.98;100.00;99515.00;5034293;28;20120;-79
2022/12/24 02:13:39;;;;;;;0.40;0.40;;;;;;;5.02;100.00;99526.97;5016460;28;20048;-79
2022/12/24 02:16:27;;;;;;;0.40;0.40;;;;;;;4.85;100.00;99504.88;5016239;28;20108;-79
2022/12/24 02:19:26;;;;;;;0.40;0.40;;;;;;;4.93;100.00;99528.00;5015921;28;20486;-79
2022/12/24 02:22:01;;;;;;;0.30;0.30;;;;;;;4.80;100.00;99529.34;5033839;28;20044;-78
2022/12/24 02:25:01;;;;;;;0.40;0.40;;;;;;;4.74;100.00;99535.34;5000175;28;20444;-78
2022/12/24 02:27:37;;;;;;;0.40;0.40;;;;;;;4.77;100.00;99542.19;5033081;28;20108;-78
2022/12/24 02:30:10;;;;;;;0.40;0.40;;;;;;;4.75;100.00;99537.00;5016310;28;20163;-78
2022/12/24 02:32:51;;;;;;;0.50;0.50;;;;;;;4.71;100.00;99530.38;5000165;28;20033;-79
2022/12/24 02:35:29;;;;;;;0.43;0.43;;;;;;;4.66;100.00;99524.72;5032590;28;20029;-77
2022/12/24 02:38:05;;;;;;;0.50;0.50;;;;;;;4.55;100.00;99533.03;5032805;28;20479;-78
2022/12/24 02:41:05;;;;;;;0.40;0.40;;;;;;;4.43;100.00;99532.53;5032911;28;20455;-80
2022/12/24 02:43:37;;;;;;;0.40;0.40;;;;;;;4.27;100.00;99522.72;5032479;28;20069;-77
2022/12/24 02:46:07;;;;;;;0.50;0.50;;;;;;;4.11;100.00;99520.88;4999304;28;20064;-78
2022/12/24 02:48:35;;;;;;;0.50;0.50;;;;;;;3.81;100.00;99494.88;5032135;28;20038;-77
2022/12/24 02:51:06;;;;;;;0.40;0.40;;;;;;;3.87;100.00;99521.66;5032544;28;20487;-78
2022/12/24 02:53:33;;;;;;;0.38;0.38;;;;;;;3.93;100.00;99521.00;5032659;28;20042;-77
2022/12/24 02:56:27;;;;;;;0.40;0.40;;;;;;;3.85;100.00;99518.34;4999814;28;20033;-78
2022/12/24 02:59:22;;;;;;;0.43;0.43;;;;;;;3.85;100.00;99525.47;5033221;28;20057;-77
2022/12/24 03:02:06;;;;;;;0.50;0.50;;;;;;;3.93;100.00;99531.66;5032300;28;20124;-79
2022/12/24 03:04:42;;;;;;;0.40;0.40;;;;;;;3.90;100.00;99521.34;5033173;28;20071;-77
2022/12/24 03:07:23;;;;;;;0.40;0.40;;;;;;;3.87;100.00;99524.31;5032475;28;20029;-76
2022/12/24 03:09:49;;;;;;;0.40;0.40;;;;;;;3.81;100.00;99514.34;5032226;28;20033;-76
2022/12/24 03:12:20;;;;;;;0.50;0.50;;;;;;;3.85;100.00;99518.34;5032095;28;20364;-76
2022/12/24 03:14:47;;;;;;;0.40;0.40;;;;;;;3.92;100.00;99514.03;4999768;28;20067;-79
2022/12/24 03:17:13;;;;;;;0.40;0.40;;;;;;;3.95;100.00;99512.88;5015875;28;20534;-78
2022/12/24 03:19:39;;;;;;;0.50;0.50;;;;;;;4.03;100.00;99499.59;5048656;28;20069;-77
2022/12/24 03:22:10;;;;;;;0.50;0.50;;;;;;;4.17;100.00;99492.78;5015657;28;20064;-77
2022/12/24 03:24:36;;;;;;;0.30;0.30;;;;;;;4.30;100.00;99503.75;5015814;28;20107;-77
2022/12/24 03:27:04;;;;;;;0.50;0.50;;;;;;;4.30;100.00;99479.81;4999408;28;20040;-77
2022/12/24 03:29:29;;;;;;;0.43;0.43;;;;;;;4.44;100.00;99480.97;5015776;28;20464;-77
2022/12/24 03:31:59;;;;;;;0.40;0.40;;;;;;;4.38;100.00;99468.31;4999463;28;20147;-77
2022/12/24 03:34:25;;;;;;;0.50;0.50;;;;;;;4.55;100.00;99485.09;4999545;28;20037;-77
2022/12/24 03:36:51;;;;;;;0.50;0.50;;;;;;;4.47;100.00;99479.78;5015368;28;20038;-77
2022/12/24 03:39:17;;;;;;;0.60;0.60;;;;;;;4.57;100.00;99480.44;5035780;28;20365;-77
2022/12/24 03:41:42;;;;;;;0.38;0.38;;;;;;;4.53;100.00;99476.47;5052557;28;20041;-79
2022/12/24 03:44:08;;;;;;;0.40;0.40;;;;;;;4.63;100.00;99485.09;5035685;28;20060;-77
2022/12/24 03:46:34;;;;;;;0.50;0.50;;;;;;;4.61;100.00;99479.13;5035907;28;20087;-77
2022/12/24 03:49:00;;;;;;;0.50;0.50;;;;;;;4.66;100.00;99481.25;5035305;28;20036;-77
2022/12/24 03:51:28;;;;;;;0.40;0.40;;;;;;;4.76;100.00;99493.41;5036104;28;20037;-77
2022/12/24 03:53:55;;;;;;;0.50;0.50;;;;;;;4.99;100.00;99490.03;5035561;28;20037;-77
2022/12/24 03:56:20;;;;;;;0.43;0.43;;;;;;;5.27;100.00;99499.25;5035888;28;20052;-77
2022/12/24 03:58:46;;;;;;;0.47;0.47;;;;;;;5.40;100.00;99500.53;5002944;28;20029;-77
2022/12/24 04:01:12;;;;;;;0.43;0.43;;;;;;;5.48;100.00;99496.00;5068773;28;20037;-77
2022/12/24 04:03:38;;;;;;;0.40;0.40;;;;;;;5.67;100.00;99502.75;5034948;28;20037;-77
2022/12/24 04:06:06;;;;;;;0.50;0.50;;;;;;;5.73;100.00;99501.22;5018716;28;20464;-77
2022/12/24 04:08:32;;;;;;;0.43;0.43;;;;;;;5.73;100.00;99493.19;5035333;28;20042;-77
2022/12/24 04:10:58;;;;;;;0.50;0.50;;;;;;;5.58;100.00;99471.78;5051971;28;20147;-77
2022/12/24 04:13:24;;;;;;;0.50;0.50;;;;;;;5.72;100.00;99497.72;5018624;28;20041;-77
2022/12/24 04:16:00;;;;;;;0.40;0.40;;;;;;;5.75;100.00;99493.88;5035381;28;20037;-77
2022/12/24 04:18:26;;;;;;;0.60;0.60;;;;;;;5.86;100.00;99514.81;5035440;28;20042;-77
2022/12/24 04:20:53;;;;;;;0.40;0.40;;;;;;;5.86;100.00;99505.97;5034834;28;20416;-77
2022/12/24 04:23:18;;;;;;;0.32;0.32;;;;;;;5.88;100.00;99506.63;5034954;28;20041;-77
2022/12/24 04:25:44;;;;;;;0.40;0.40;;;;;;;5.95;100.00;99496.94;5018526;28;20033;-77
2022/12/24 04:28:10;;;;;;;0.40;0.40;;;;;;;5.91;100.00;99492.94;5035392;28;20037;-77
2022/12/24 04:30:37;;;;;;;0.40;0.40;;;;;;;6.05;100.00;99507.38;5035045;28;20542;-77
2022/12/24 04:33:03;;;;;;;0.50;0.50;;;;;;;5.81;100.00;99469.16;5034560;28;20026;-77
2022/12/24 04:35:28;;;;;;;0.50;0.50;;;;;;;6.06;100.00;99485.88;5034782;28;20029;-77
2022/12/24 04:37:54;;;;;;;0.40;0.40;;;;;;;6.06;100.00;99488.53;5002098;28;20116;-78
2022/12/24 04:40:20;;;;;;;0.30;0.30;;;;;;;6.13;100.00;99496.66;5018268;28;20033;-79
2022/12/24 04:42:45;;;;;;;0.45;0.45;;;;;;;6.24;100.00;99488.22;5017986;28;20064;-79
2022/12/24 04:45:11;;;;;;;0.50;0.50;;;;;;;6.39;100.00;99498.94;5018180;28;20029;-78
2022/12/24 04:47:37;;;;;;;0.55;0.55;;;;;;;6.42;100.00;99484.41;5034406;28;20040;-77
2022/12/24 04:50:03;;;;;;;0.43;0.43;;;;;;;6.26;100.00;99466.69;5033554;28;20060;-79
2022/12/24 04:52:28;;;;;;;0.40;0.40;;;;;;;6.04;100.00;99463.03;5034308;28;20368;-80
2022/12/24 04:54:54;;;;;;;0.50;0.50;;;;;;;5.95;100.00;99459.56;5001784;28;20132;-79
2022/12/24 04:57:20;;;;;;;0.50;0.50;;;;;;;5.89;100.00;99470.94;5034759;28;20040;-79
2022/12/24 04:59:45;;;;;;;0.45;0.45;;;;;;;5.87;100.00;99475.59;5001970;28;20059;-78
2022/12/24 05:02:11;;;;;;;0.50;0.50;;;;;;;5.82;100.00;99472.63;5034454;28;20041;-78
2022/12/24 05:04:36;;;;;;;0.30;0.30;;;;;;;5.76;100.00;99478.69;5035496;28;20056;-78
2022/12/24 05:07:03;;;;;;;0.40;0.40;;;;;;;5.87;100.00;99484.44;5017798;28;20108;-79
2022/12/24 05:09:28;;;;;;;0.43;0.43;;;;;;;5.97;100.00;99481.59;5034343;28;20045;-78
2022/12/24 05:11:54;;;;;;;0.50;0.50;;;;;;;6.04;100.00;99473.72;5034159;28;20480;-78
2022/12/24 05:14:19;;;;;;;0.40;0.40;;;;;;;6.13;100.00;99488.63;5051061;28;20040;-77
2022/12/24 05:16:45;;;;;;;0.40;0.40;;;;;;;6.09;100.00;99495.34;5050559;28;20031;-78
2022/12/24 05:19:11;;;;;;;0.45;0.45;;;;;;;6.00;100.00;99486.56;5034203;28;20037;-78
2022/12/24 05:21:36;;;;;;;0.40;0.40;;;;;;;6.12;100.00;99490.47;5034090;28;20032;-79
2022/12/24 05:26:52;;;;;;;0.40;0.40;;;;;;;6.23;100.00;99488.41;5034081;28;20025;-78
2022/12/24 05:29:18;;;;;;;0.40;0.40;;;;;;;6.18;100.00;99478.25;5001219;28;20475;-79
2022/12/24 05:31:44;;;;;;;0.40;0.40;;;;;;;6.21;100.00;99485.09;5033672;28;20118;-78
2022/12/24 05:34:11;;;;;;;0.47;0.47;;;;;;;6.15;100.00;99478.63;5000689;28;20030;-78
2022/12/24 05:36:37;;;;;;;0.40;0.40;;;;;;;5.84;100.00;99446.63;5033294;28;20025;-78
2022/12/24 05:39:03;;;;;;;0.50;0.50;;;;;;;6.00;100.00;99483.88;5033523;28;20037;-78
2022/12/24 05:41:29;;;;;;;0.38;0.38;;;;;;;5.80;100.00;99482.69;5050161;28;20029;-77
2022/12/24 05:43:55;;;;;;;0.50;0.50;;;;;;;5.66;100.00;99482.41;5017164;28;20079;-78
2022/12/24 05:46:22;;;;;;;0.43;0.43;;;;;;;5.73;100.00;99482.53;5033355;28;20041;-78
2022/12/24 05:48:48;;;;;;;0.50;0.50;;;;;;;5.69;100.00;99476.72;5000730;28;20041;-77
2022/12/24 05:51:14;;;;;;;0.40;0.40;;;;;;;5.61;100.00;99465.25;5000810;28;20060;-78
2022/12/24 05:53:40;;;;;;;0.50;0.50;;;;;;;5.68;100.00;99461.72;5033182;28;20033;-78
2022/12/24 05:56:19;;;;;;;0.40;0.40;;;;;;;5.65;100.00;99472.75;5033429;28;20033;-78
2022/12/24 05:58:44;;;;;;;0.40;0.40;;;;;;;5.65;100.00;99474.59;5033413;28;20089;-78
2022/12/24 06:01:11;;;;;;;0.40;0.40;;;;;;;5.50;100.00;99455.81;5016292;28;20434;-79
2022/12/24 06:03:37;;;;;;;0.40;0.40;;;;;;;5.50;100.00;99470.00;5033155;28;20025;-78
2022/12/24 06:06:05;;;;;;;0.40;0.40;;;;;;;5.47;100.00;99473.00;5016359;28;20053;-78
2022/12/24 06:08:32;;;;;;;0.40;0.40;;;;;;;5.47;100.00;99466.84;5016844;28;20525;-79
2022/12/24 06:11:00;;;;;;;0.50;0.50;;;;;;;5.48;100.00;99469.34;5000284;28;20103;-78
2022/12/24 06:13:26;;;;;;;0.50;0.50;;;;;;;5.54;100.00;99467.81;5032984;28;20463;-78
2022/12/24 06:15:56;;;;;;;0.40;0.40;;;;;;;5.54;100.00;99459.00;5000450;28;20033;-79
2022/12/24 06:18:22;;;;;;;0.50;0.50;;;;;;;5.56;100.00;99457.81;5033084;28;20079;-79
2022/12/24 06:20:52;;;;;;;0.50;0.50;;;;;;;5.51;100.00;99463.66;5032828;28;20033;-78
2022/12/24 06:23:18;;;;;;;0.50;0.50;;;;;;;5.62;100.00;99449.09;5032642;28;20415;-78
2022/12/24 06:25:43;;;;;;;0.50;0.50;;;;;;;5.78;100.00;99448.16;5032798;28;20029;-78
2022/12/24 06:28:09;;;;;;;0.45;0.45;;;;;;;5.86;100.00;99449.94;5034118;28;20075;-78
2022/12/24 06:30:35;;;;;;;0.40;0.40;;;;;;;5.89;100.00;99449.59;5032688;28;20044;-79
2022/12/24 06:33:00;;;;;;;0.50;0.50;;;;;;;5.88;100.00;99445.28;5033563;28;20036;-80
2022/12/24 06:35:26;;;;;;;0.50;0.50;;;;;;;5.84;100.00;99442.13;5016090;28;20458;-78
2022/12/24 06:37:52;;;;;;;0.50;0.50;;;;;;;5.76;100.00;99428.00;5033421;28;20033;-79
2022/12/24 06:40:17;;;;;;;0.50;0.50;;;;;;;5.78;100.00;99418.00;5035474;28;20041;-78
2022/12/24 06:42:43;;;;;;;0.50;0.50;;;;;;;5.69;100.00;99426.06;5032564;28;20387;-79
2022/12/24 06:45:09;;;;;;;0.47;0.47;;;;;;;5.59;100.00;99422.78;5033525;28;20380;-80
2022/12/24 06:47:35;;;;;;;0.45;0.45;;;;;;;5.71;100.00;99415.19;5032423;28;20100;-79
2022/12/24 06:50:00;;;;;;;0.50;0.50;;;;;;;5.96;100.00;99428.41;5016260;28;20432;-78
2022/12/24 06:52:26;;;;;;;0.60;0.60;;;;;;;6.10;100.00;99417.78;5032243;28;20380;-78
2022/12/24 06:54:51;;;;;;;0.45;0.45;;;;;;;6.13;100.00;99404.06;5016186;28;20029;-79
2022/12/24 06:57:17;;;;;;;0.40;0.40;;;;;;;6.28;100.00;99425.47;5032255;28;20029;-78
2022/12/24 06:59:46;;;;;;;0.50;0.50;;;;;;;6.20;100.00;99400.69;5032204;28;20475;-77
2022/12/24 07:02:12;;;;;;;0.82;0.82;;;;;;;6.09;100.00;99396.63;5032011;28;20022;-77
2022/12/24 07:04:37;;;;;;;0.50;0.50;;;;;;;5.94;100.00;99378.72;5033294;28;20494;-78
2022/12/24 07:07:03;;;;;;;0.50;0.50;;;;;;;6.05;100.00;99390.78;5033399;28;20475;-77
2022/12/24 07:09:29;;;;;;;0.40;0.40;;;;;;;5.99;100.00;99390.69;5032546;28;20033;-77
2022/12/24 07:11:55;;;;;;;0.60;0.60;;;;;;;5.96;100.00;99389.22;5033079;28;20041;-78
2022/12/24 07:14:21;;;;;;;0.47;0.47;;;;;;;6.01;100.00;99389.50;5038310;28;20030;-78
2022/12/24 07:16:46;;;;;;;0.47;0.47;;;;;;;6.08;100.00;99385.09;5038916;28;20033;-78
2022/12/24 07:19:12;;;;;;;0.50;0.50;;;;;;;6.06;100.00;99373.78;5038924;28;20041;-78
2022/12/24 07:21:38;;;;;;;0.50;0.50;;;;;;;6.13;100.00;99360.53;5038711;28;20467;-78
2022/12/24 07:24:04;;;;;;;0.60;0.60;;;;;;;6.22;100.00;99377.28;5039514;28;20472;-78
2022/12/24 07:26:29;;;;;;;0.47;0.47;;;;;;;6.25;100.00;99355.59;5038838;28;20025;-78
2022/12/24 07:28:58;;;;;;;0.50;0.50;;;;;;;6.26;100.00;99362.59;5038422;28;20032;-78
2022/12/24 07:31:24;;;;;;;0.50;0.50;;;;;;;6.26;100.00;99360.75;5038842;28;20030;-77
2022/12/24 07:33:49;;;;;;;0.43;0.43;;;;;;;6.31;100.00;99368.22;5038557;28;20032;-78
2022/12/24 07:36:20;;;;;;;0.60;0.60;;;;;;;6.25;100.00;99351.09;5038834;28;20065;-78
2022/12/24 07:38:45;;;;;;;0.60;0.60;;;;;;;6.46;100.00;99365.56;5021980;28;20087;-79
2022/12/24 07:41:11;;;;;;;0.50;0.50;;;;;;;6.54;100.00;99368.97;5037881;28;20029;-80
2022/12/24 07:43:37;;;;;;;0.40;0.40;;;;;;;6.47;100.00;99353.88;5038131;28;20055;-77
2022/12/24 07:46:03;;;;;;;0.40;0.40;;;;;;;6.56;100.00;99356.28;5021971;28;20120;-78
2022/12/24 07:48:29;;;;;;;0.50;0.50;;;;;;;6.59;100.00;99352.41;5039366;28;20108;-79
2022/12/24 07:50:56;;;;;;;0.50;0.50;;;;;;;6.71;100.00;99353.56;5021484;28;20022;-78
2022/12/24 07:53:22;;;;;;;0.40;0.40;;;;;;;6.78;100.00;99361.69;5038441;28;20040;-78
2022/12/24 07:55:48;;;;;;;0.50;0.50;;;;;;;6.76;100.00;99355.69;5038427;28;20067;-79
2022/12/24 07:58:13;;;;;;;6.32;0.70;;;;;;;6.73;100.00;99356.06;5022039;28;20710;-77
2022/12/24 08:00:39;;;;;;;1.15;1.15;;;;;;;6.79;100.00;99360.66;5038027;28;20056;-78
2022/12/24 08:03:05;;;;;;;0.40;0.40;;;;;;;6.77;100.00;99347.50;5038297;28;20029;-79
2022/12/24 08:05:39;;;;;;;0.50;0.50;;;;;;;6.99;100.00;99351.06;5038341;28;20352;-79
2022/12/24 08:08:04;;;;;;;0.50;0.50;;;;;;;7.01;100.00;99351.72;5054622;28;20048;-79
2022/12/24 08:10:30;;;;;;;0.50;0.50;;;;;;;7.14;100.00;99353.69;5037998;28;20025;-79
2022/12/24 08:12:56;;;;;;;0.63;0.63;;;;;;;7.12;100.00;99344.19;5038319;28;20049;-78
2022/12/24 08:15:21;;;;;;;0.60;0.60;;;;;;;7.26;100.00;99351.38;5039169;28;20119;-78
2022/12/24 08:17:47;;;;;;;0.68;0.68;;;;;;;7.42;100.00;99350.31;5037867;28;20471;-79
2022/12/24 08:20:14;;;;;;;0.55;0.55;;;;;;;7.51;100.00;99346.47;5039245;28;20478;-80
2022/12/24 08:22:40;;;;;;;0.50;0.50;;;;;;;7.59;100.00;99346.34;5038180;28;20034;-78
2022/12/24 08:25:06;;;;;;;1.17;1.08;;;;;;;7.65;100.00;99340.25;5035106;28;20026;-78
2022/12/24 08:27:32;;;;;;;1.55;1.15;;;;;;;7.61;100.00;99330.94;5034928;28;20040;-78
2022/12/24 08:29:58;;;;;;;6.72;1.13;;;;;;;7.60;100.00;99340.00;5036001;28;20037;-78
2022/12/24 08:32:23;;;;;;;0.55;0.55;;;;;;;7.64;100.00;99340.44;5035287;28;20029;-78
2022/12/24 08:34:49;;;;;;;1.55;0.57;;;;;;;7.54;100.00;99338.09;5051402;28;20561;-78
2022/12/24 08:37:14;;;;;;;6.55;1.25;;;;;;;7.42;100.00;99337.75;5018114;28;20029;-79
2022/12/24 08:39:40;;;;;;;0.90;0.77;;;;;;;7.35;100.00;99339.53;5051410;28;20032;-78
2022/12/24 08:42:06;;;;;;;2.35;1.88;;;;;;;7.20;100.00;99328.06;5035419;28;20546;-79
2022/12/24 08:44:31;;;;;;;10.00;2.55;;;;;;;7.26;100.00;99341.50;5001314;28;20087;-79
2022/12/24 08:46:57;;;;;;;10.05;3.53;;;;;;;7.30;100.00;99343.78;5034372;28;20088;-78
2022/12/24 08:49:22;;;;;;;3.58;2.15;;;;;;;7.39;100.00;99343.50;5050417;28;20029;-78
2022/12/24 08:51:50;;;;;;;2.30;1.77;;;;;;;7.47;100.00;99353.25;5050885;28;20038;-79
2022/12/24 08:54:15;;;;;;;2.50;1.42;;;;;;;7.51;100.00;99345.66;5017758;28;20480;-79
2022/12/24 08:56:41;;;;;;;4.15;2.60;;;;;;;7.55;100.00;99354.97;5017813;28;20041;-79
2022/12/24 08:59:07;;;;;;;4.80;1.85;;;;;;;7.60;100.00;99353.38;5035209;28;20053;-79
2022/12/24 09:01:33;;;;;;;8.52;2.78;;;;;;;7.64;100.00;99338.59;5034095;28;20041;-80
2022/12/24 09:04:00;;;;;;;2.20;1.00;;;;;;;7.75;100.00;99352.47;5033963;28;20034;-79
2022/12/24 09:06:26;;;;;;;0.90;0.90;;;;;;;7.82;100.00;99343.47;5033700;28;20025;-79
2022/12/24 09:08:51;;;;;;;1.40;1.27;;;;;;;7.85;100.00;99344.94;5034263;28;20076;-79
2022/12/24 09:11:19;;;;;;;2.22;1.35;;;;;;;7.99;100.00;99351.22;5034277;28;20029;-80
2022/12/24 09:13:45;;;;;;;2.17;1.13;;;;;;;8.03;100.00;99364.03;5034246;28;20480;-79
2022/12/24 09:16:11;;;;;;;0.98;0.90;;;;;;;8.02;100.00;99365.06;5017558;28;20030;-80
2022/12/24 09:18:38;;;;;;;0.88;0.80;;;;;;;8.01;100.00;99370.59;5033647;28;20029;-78
2022/12/24 09:21:10;;;;;;;0.65;0.65;;;;;;;7.97;100.00;99369.34;5033804;28;20025;-78
2022/12/24 09:23:39;;;;;;;0.40;0.40;;;;;;;7.93;100.00;99363.53;5017433;28;20029;-78
2022/12/24 09:26:07;;;;;;;0.40;0.40;;;;;;;7.93;100.00;99359.00;5033597;28;20127;-78
2022/12/24 09:28:33;;;;;;;0.40;0.40;;;;;;;7.95;100.00;99371.38;5033676;28;20063;-77
2022/12/24 09:31:00;;;;;;;2.40;0.40;;;;;;;7.89;100.00;99356.94;5033775;28;20037;-77
2022/12/24 09:33:31;;;;;;;0.43;0.43;;;;;;;7.97;100.00;99382.75;5001124;28;20044;-77
2022/12/24 09:35:57;;;;;;;0.40;0.40;;;;;;;8.01;100.00;99374.09;5033273;28;20041;-78
2022/12/24 09:38:23;;;;;;;0.60;0.60;;;;;;;8.06;100.00;99365.50;5033329;28;20037;-77
2022/12/24 09:40:50;;;;;;;0.50;0.50;;;;;;;7.91;100.00;99347.69;5033637;28;20124;-77
2022/12/24 09:43:19;;;;;;;0.50;0.50;;;;;;;7.85;100.00;99340.41;5033023;28;20033;-77
2022/12/24 09:46:00;;;;;;;0.45;0.45;;;;;;;7.85;100.00;99339.59;5033437;28;20106;-77
2022/12/24 09:48:30;;;;;;;0.43;0.43;;;;;;;7.75;100.00;99339.91;5034118;28;20033;-77
2022/12/24 09:51:08;;;;;;;0.40;0.40;;;;;;;7.64;100.00;99335.09;5033149;28;20033;-77
2022/12/24 09:54:05;;;;;;;0.50;0.50;;;;;;;7.80;100.00;99364.25;5000535;28;20083;-78
2022/12/24 09:56:40;;;;;;;1.65;0.60;;;;;;;7.81;100.00;99360.56;5028815;28;20041;-77
2022/12/24 09:59:12;;;;;;;0.50;0.50;;;;;;;7.81;100.00;99360.56;5032851;28;20025;-78
2022/12/24 10:01:38;;;;;;;0.40;0.40;;;;;;;7.86;100.00;99344.75;5033148;28;20037;-77
2022/12/24 10:04:11;;;;;;;0.40;0.40;;;;;;;7.87;100.00;99333.03;5017033;28;20167;-77
2022/12/24 10:06:53;;;;;;;0.47;0.47;;;;;;;7.82;100.00;99329.28;5049828;28;20467;-76
2022/12/24 10:09:45;;;;;;;0.40;0.40;;;;;;;7.82;100.00;99340.81;5034447;28;20076;-76
2022/12/24 10:12:19;;;;;;;0.40;0.40;;;;;;;7.82;100.00;99324.75;5016822;28;20037;-76
2022/12/24 10:15:08;;;;;;;0.50;0.50;;;;;;;7.81;100.00;99324.97;5032784;28;20067;-77
2022/12/24 10:18:00;;;;;;;0.40;0.40;;;;;;;7.78;100.00;99328.00;5032231;28;20107;-76
2022/12/24 10:20:58;;;;;;;0.40;0.40;;;;;;;7.52;100.00;99281.28;5016327;28;20384;-77
2022/12/24 10:23:45;;;;;;;0.40;0.40;;;;;;;7.60;100.00;99302.56;5027758;28;20403;-77
2022/12/24 10:26:22;;;;;;;0.50;0.50;;;;;;;7.64;100.00;99311.81;5032731;28;20075;-77
2022/12/24 10:28:51;;;;;;;0.47;0.47;;;;;;;7.59;100.00;99306.22;5033019;28;20037;-76
2022/12/24 10:31:22;;;;;;;0.40;0.40;;;;;;;7.62;100.00;99307.69;5016598;28;20033;-77
2022/12/24 10:33:52;;;;;;;0.40;0.40;;;;;;;7.72;100.00;99313.53;4999998;28;20087;-77
2022/12/24 10:36:22;;;;;;;0.40;0.40;;;;;;;7.83;100.00;99315.72;5016333;28;20033;-76
2022/12/24 10:38:48;;;;;;;0.45;0.45;;;;;;;7.85;100.00;99310.16;5015924;28;20056;-76
2022/12/24 10:41:14;;;;;;;0.40;0.40;;;;;;;7.87;100.00;99322.31;5000067;28;20037;-77
2022/12/24 10:43:41;;;;;;;0.40;0.40;;;;;;;7.88;100.00;99320.47;5032461;28;20124;-76
2022/12/24 10:46:15;;;;;;;0.60;0.60;;;;;;;7.90;100.00;99321.13;5016043;28;20040;-76
2022/12/24 10:48:45;;;;;;;0.60;0.60;;;;;;;7.98;100.00;99315.63;5015719;28;20033;-76
2022/12/24 10:51:19;;;;;;;0.40;0.40;;;;;;;8.04;100.00;99316.69;5000085;28;20061;-77
2022/12/24 10:53:58;;;;;;;0.40;0.40;;;;;;;8.13;100.00;99327.06;5015931;28;20037;-76
2022/12/24 10:56:23;;;;;;;0.40;0.40;;;;;;;8.19;100.00;99325.44;5032249;28;20124;-77
2022/12/24 10:58:53;;;;;;;0.50;0.50;;;;;;;8.36;100.00;99328.63;5032037;28;20113;-76
2022/12/24 11:01:20;;;;;;;0.40;0.40;;;;;;;8.54;100.00;99320.13;5015766;28;20048;-76
2022/12/24 11:03:58;;;;;;;0.40;0.40;;;;;;;8.73;100.00;99316.75;5016065;28;20068;-77
2022/12/24 11:06:24;;;;;;;0.50;0.50;;;;;;;8.93;100.00;99332.88;5032132;28;20021;-77
2022/12/24 11:08:50;;;;;;;0.40;0.40;;;;;;;8.95;100.00;99319.28;5015841;28;20456;-76
2022/12/24 11:11:19;;;;;;;0.50;0.50;;;;;;;8.95;100.00;99317.44;4999824;28;20048;-76
2022/12/24 11:13:55;;;;;;;0.52;0.52;;;;;;;8.76;100.00;99310.97;4999478;28;20538;-77
2022/12/24 11:16:29;;;;;;;0.50;0.50;;;;;;;8.67;100.00;99295.25;5032407;28;20072;-77
2022/12/24 11:18:57;;;;;;;0.43;0.43;;;;;;;8.69;100.00;99304.75;5032432;28;20091;-77
2022/12/24 11:21:35;;;;;;;0.40;0.40;;;;;;;8.71;100.00;99297.34;4999781;28;20091;-77
2022/12/24 11:24:19;;;;;;;0.45;0.45;;;;;;;8.69;100.00;99294.03;5032278;28;20124;-77
2022/12/24 11:26:45;;;;;;;0.40;0.40;;;;;;;8.66;100.00;99294.44;5032076;28;20025;-76
2022/12/24 11:29:18;;;;;;;0.68;0.60;;;;;;;8.58;100.00;99281.22;5031818;28;20442;-76
2022/12/24 11:31:45;;;;;;;0.50;0.50;;;;;;;8.47;100.00;99303.22;5015570;28;20030;-77
2022/12/24 11:34:31;;;;;;;0.35;0.35;;;;;;;8.46;100.00;99304.22;5048376;28;20034;-76
2022/12/24 11:37:22;;;;;;;0.50;0.50;;;;;;;8.30;100.00;99287.41;5015508;28;20423;-77
2022/12/24 11:39:58;;;;;;;0.40;0.40;;;;;;;8.28;100.00;99312.72;4999398;28;20052;-77
2022/12/24 11:42:41;;;;;;;0.43;0.43;;;;;;;8.28;100.00;99305.53;4999180;28;20034;-76
2022/12/24 11:45:19;;;;;;;0.40;0.40;;;;;;;8.05;100.00;99287.06;5031650;28;20036;-77
2022/12/24 11:47:45;;;;;;;0.77;0.50;;;;;;;7.89;100.00;99304.22;5031560;28;20479;-77
2022/12/24 11:50:37;;;;;;;0.50;0.50;;;;;;;7.69;100.00;99301.38;5031578;28;20029;-77
2022/12/24 11:53:03;;;;;;;0.50;0.50;;;;;;;7.58;100.00;99295.72;5007040;28;20037;-79